^^

..:: Storico WU ::..




Lo storico viene creato da WUnderground con i dati che la stazione Meteomincio invia al loro server. L' aggiornamento viene fatto ogni 5 minuti circa, tuttavia possono esserci intervalli pi¨ ampi a causa di errori, interruzioni di servizio o problemi nell' invio tramite FTP.


Storico stazione MeteoMincio
Giorno Sommario per Dicembre 15, 2022 Unità:  Metrico    Inglese   Entrambi
Giorno Settimana Mese Anno
  Max: Min: Media:
Temperatura: 5.3 °C 3.4 °C 4.1 °C
Dew Point: 3.7 °C 1.8 °C 2.9 °C
Umidità: 96% 87.1% 92%
Velocità vento: 16.1km/h 0.5km/h 6.5km/h
Raffica: 25.9km/h - -
Direzione- - South
Pressione: 1009.7 hPa 1002.6 hPa -
Precipitazioni: 19.2 mm    
 
 
Tabulato Dati per Dicembre 15, 2022
Ora Temperatura Dew Point Pressione Direzione Velocità vento Raffica Umidità Intensità pioggia (oraria) Info solare Situazione
00:04 3.6 °C 2.3 °C 1006.2 hPa West 5.9 km/h 9.7 km/h 91% 0.0 mm 0 W/m2
00:09 3.7 °C 2.3 °C 1006.3 hPa West 6.1 km/h 9.7 km/h 91% 0.0 mm 0 W/m2
00:14 3.7 °C 2.3 °C 1006.3 hPa WSW 5.4 km/h 8 km/h 91% 0.0 mm 0 W/m2
00:19 3.7 °C 2.3 °C 1006.4 hPa West 6.4 km/h 12.9 km/h 91% 0.0 mm 0 W/m2
00:24 3.7 °C 2.3 °C 1006.3 hPa West 8.2 km/h 13 km/h 91% 0.0 mm 0 W/m2
00:29 3.7 °C 2.3 °C 1006.3 hPa West 7.9 km/h 13 km/h 91% 0.0 mm 0 W/m2
00:34 3.7 °C 2.4 °C 1006.3 hPa West 6.4 km/h 12.9 km/h 91% 0.0 mm 0 W/m2
00:39 3.7 °C 2.4 °C 1006.5 hPa West 7.9 km/h 14.8 km/h 91% 0.0 mm 0 W/m2
00:44 3.7 °C 2.4 °C 1006.5 hPa West 8.2 km/h 14.8 km/h 91% 0.0 mm 0 W/m2
00:49 3.7 °C 2.3 °C 1006.4 hPa WNW 8.3 km/h 14.5 km/h 90.2% 0.0 mm 0 W/m2
00:54 3.7 °C 2.2 °C 1006.1 hPa WNW 8.1 km/h 16.7 km/h 90% 0.0 mm 0 W/m2
00:59 3.7 °C 2.2 °C 1006.1 hPa WNW 7.1 km/h 16.1 km/h 90% 0.0 mm 0 W/m2
01:04 3.7 °C 2.2 °C 1006.1 hPa WNW 7.9 km/h 11.3 km/h 90% 0.0 mm 0 W/m2
01:09 3.7 °C 2.2 °C 1006.1 hPa West 6.9 km/h 11.3 km/h 90% 0.0 mm 0 W/m2
01:14 3.7 °C 2.1 °C 1006.1 hPa West 5.4 km/h 9.7 km/h 89.4% 0.0 mm 0 W/m2
01:19 3.7 °C 2.1 °C 1006.0 hPa West 4.8 km/h 9.7 km/h 89% 0.0 mm 0 W/m2
01:24 3.7 °C 2.1 °C 1006.0 hPa West 5.7 km/h 9.7 km/h 89% 0.0 mm 0 W/m2
01:29 3.7 °C 2.1 °C 1006.0 hPa West 5.5 km/h 8 km/h 89% 0.0 mm 0 W/m2
01:34 3.7 °C 2.1 °C 1006.1 hPa West 5.9 km/h 11.3 km/h 89% 0.0 mm 0 W/m2
01:39 3.7 °C 2.1 °C 1006.2 hPa West 6.7 km/h 11.3 km/h 89% 0.0 mm 0 W/m2
01:44 3.7 °C 2.1 °C 1006.2 hPa West 5.7 km/h 11.3 km/h 89% 0.0 mm 0 W/m2
01:49 3.7 °C 2 °C 1006.2 hPa West 6.5 km/h 11.3 km/h 89% 0.0 mm 0 W/m2
01:54 3.7 °C 2 °C 1006.2 hPa WNW 7.1 km/h 11.3 km/h 89% 0.0 mm 0 W/m2
01:59 3.7 °C 2 °C 1006.2 hPa WNW 7.5 km/h 11.3 km/h 89% 0.0 mm 0 W/m2
02:04 3.7 °C 2 °C 1006.2 hPa WNW 7.3 km/h 11.3 km/h 89% 0.0 mm 0 W/m2
02:09 3.6 °C 2 °C 1006.3 hPa WNW 7.3 km/h 11.3 km/h 89% 0.0 mm 0 W/m2
02:14 3.6 °C 2 °C 1006.3 hPa WNW 5.9 km/h 9.7 km/h 89% 0.0 mm 0 W/m2
02:19 3.6 °C 1.9 °C 1006.3 hPa WNW 5.4 km/h 9.7 km/h 89% 0.0 mm 0 W/m2
02:24 3.6 °C 1.9 °C 1006.2 hPa WNW 5 km/h 8 km/h 89% 0.0 mm 0 W/m2
02:29 3.6 °C 1.9 °C 1006.3 hPa West 5.2 km/h 9.7 km/h 89% 0.0 mm 0 W/m2
02:34 3.6 °C 1.9 °C 1006.3 hPa West 3.9 km/h 9.7 km/h 89% 0.0 mm 0 W/m2
02:39 3.5 °C 1.9 °C 1006.3 hPa West 3 km/h 6.4 km/h 89% 0.0 mm 0 W/m2
02:44 3.5 °C 1.9 °C 1006.4 hPa West 3.8 km/h 5.6 km/h 89% 0.0 mm 0 W/m2
02:49 3.5 °C 1.9 °C 1006.4 hPa West 2.7 km/h 5.6 km/h 89% 0.0 mm 0 W/m2
02:54 3.5 °C 1.8 °C 1006.4 hPa West 2 km/h 4.8 km/h 89% 0.0 mm 0 W/m2
02:59 3.5 °C 1.8 °C 1006.5 hPa WSW 2.9 km/h 5.6 km/h 89% 0.0 mm 0 W/m2
03:04 3.5 °C 1.9 °C 1006.5 hPa WSW 4.3 km/h 6.4 km/h 89.1% 0.0 mm 0 W/m2
03:09 3.5 °C 2 °C 1006.5 hPa SW 4.7 km/h 8 km/h 89.7% 0.0 mm 0 W/m2
03:14 3.5 °C 2 °C 1006.6 hPa SW 5.4 km/h 8 km/h 90% 0.0 mm 0 W/m2
03:19 3.5 °C 2 °C 1006.5 hPa WSW 6.3 km/h 9.7 km/h 90% 0.0 mm 0 W/m2
03:24 3.5 °C 2 °C 1006.5 hPa WSW 5.4 km/h 9.7 km/h 90% 0.0 mm 0 W/m2
03:29 3.5 °C 2 °C 1006.4 hPa WSW 4.7 km/h 9.7 km/h 90% 0.0 mm 0 W/m2
03:34 3.5 °C 2 °C 1006.5 hPa WSW 5.6 km/h 9.7 km/h 90% 0.0 mm 0 W/m2
03:39 3.5 °C 2 °C 1006.5 hPa WSW 6 km/h 9.7 km/h 90% 0.0 mm 0 W/m2
03:44 3.5 °C 2 °C 1006.6 hPa WSW 5.4 km/h 9.7 km/h 90% 0.0 mm 0 W/m2
03:49 3.5 °C 2 °C 1006.6 hPa WSW 5 km/h 9.7 km/h 90% 0.0 mm 0 W/m2
03:54 3.5 °C 2 °C 1006.5 hPa WSW 4.5 km/h 9.7 km/h 90% 0.0 mm 0 W/m2
03:59 3.5 °C 2 °C 1006.4 hPa WSW 4.4 km/h 6.4 km/h 90% 0.0 mm 0 W/m2
04:04 3.5 °C 2 °C 1006.4 hPa WSW 3.9 km/h 8 km/h 90% 0.0 mm 0 W/m2
04:09 3.5 °C 2 °C 1006.7 hPa WSW 6.7 km/h 9.7 km/h 90% 0.0 mm 0 W/m2
04:14 3.4 °C 1.9 °C 1006.7 hPa WSW 5.5 km/h 9.7 km/h 90% 0.0 mm 0 W/m2
04:19 3.5 °C 2 °C 1006.5 hPa West 5.2 km/h 8 km/h 90% 0.0 mm 0 W/m2
04:24 3.5 °C 2 °C 1006.5 hPa West 3.7 km/h 8 km/h 90% 0.0 mm 0 W/m2
04:29 3.4 °C 1.9 °C 1006.6 hPa West 3.7 km/h 6.4 km/h 90% 0.0 mm 0 W/m2
04:34 3.4 °C 1.9 °C 1006.6 hPa WNW 3.2 km/h 6.4 km/h 90% 0.0 mm 0 W/m2
04:39 3.4 °C 1.9 °C 1006.6 hPa WNW 3.3 km/h 5.6 km/h 90% 0.0 mm 0 W/m2
04:44 3.4 °C 1.9 °C 1006.6 hPa WNW 3.8 km/h 6.4 km/h 90% 0.0 mm 0 W/m2
04:49 3.4 °C 1.9 °C 1006.6 hPa WNW 2.7 km/h 6.4 km/h 90% 0.0 mm 0 W/m2
04:54 3.4 °C 1.9 °C 1006.8 hPa WNW 2.7 km/h 5.6 km/h 90% 0.0 mm 0 W/m2
04:59 3.4 °C 1.9 °C 1006.9 hPa West 2.5 km/h 4.8 km/h 90% 0.0 mm 0 W/m2
05:04 3.4 °C 1.9 °C 1007.0 hPa WSW 2.3 km/h 5.6 km/h 90% 0.0 mm 0 W/m2
05:09 3.4 °C 1.9 °C 1007.1 hPa SW 3 km/h 5.6 km/h 90% 0.0 mm 0 W/m2
05:14 3.4 °C 1.9 °C 1007.2 hPa SW 2.8 km/h 6.4 km/h 90% 0.0 mm 0 W/m2
05:19 3.4 °C 1.9 °C 1007.2 hPa SW 3.8 km/h 6.4 km/h 90% 0.0 mm 0 W/m2
05:24 3.4 °C 1.9 °C 1007.0 hPa SW 4.2 km/h 8 km/h 90% 0.0 mm 0 W/m2
05:29 3.4 °C 1.9 °C 1007.0 hPa SW 3.7 km/h 8 km/h 90% 0.0 mm 0 W/m2
05:34 3.4 °C 1.9 °C 1007.0 hPa SW 3.7 km/h 8 km/h 90% 0.0 mm 0 W/m2
05:39 3.4 °C 1.9 °C 1007.0 hPa SW 3.8 km/h 8 km/h 90% 0.0 mm 0 W/m2
05:44 3.4 °C 1.9 °C 1007.1 hPa SW 3.8 km/h 6.4 km/h 90% 0.0 mm 0 W/m2
05:49 3.5 °C 2 °C 1007.1 hPa WSW 3.7 km/h 6.4 km/h 90% 0.0 mm 0 W/m2
05:54 3.5 °C 2 °C 1007.1 hPa West 3.3 km/h 6.4 km/h 90% 0.0 mm 0 W/m2
05:59 3.5 °C 2 °C 1007.1 hPa West 3.3 km/h 5.6 km/h 90% 0.0 mm 0 W/m2
06:04 3.5 °C 2 °C 1007.1 hPa West 3.5 km/h 5.6 km/h 90% 0.0 mm 0 W/m2
06:09 3.5 °C 2 °C 1007.0 hPa WSW 4.2 km/h 6.4 km/h 90% 0.0 mm 0 W/m2
06:14 3.5 °C 2 °C 1007.1 hPa SW 2.8 km/h 6.4 km/h 90.2% 0.0 mm 0 W/m2
06:19 3.5 °C 2.1 °C 1007.2 hPa SW 2.5 km/h 5.6 km/h 90.8% 0.0 mm 0 W/m2
06:24 3.4 °C 2.1 °C 1007.4 hPa WSW 3.2 km/h 5.6 km/h 91% 0.0 mm 0 W/m2
06:29 3.4 °C 2.1 °C 1007.4 hPa SW 3.8 km/h 5.6 km/h 91% 0.0 mm 0 W/m2
06:34 3.4 °C 2.1 °C 1007.4 hPa SW 3.5 km/h 6.4 km/h 91% 0.0 mm 0 W/m2
06:39 3.4 °C 2.1 °C 1007.5 hPa SW 3.5 km/h 6.4 km/h 91% 0.0 mm 0 W/m2
06:44 3.4 °C 2.1 °C 1007.5 hPa SW 3.8 km/h 6.4 km/h 91% 0.0 mm 0 W/m2
06:49 3.4 °C 2.1 °C 1007.5 hPa SW 3.1 km/h 6.4 km/h 91% 0.0 mm 0 W/m2
06:54 3.4 °C 2.1 °C 1007.5 hPa SW 4.4 km/h 8 km/h 91% 0.0 mm 0 W/m2
06:59 3.4 °C 2.1 °C 1007.5 hPa SW 6.5 km/h 8 km/h 91% 0.0 mm 0 W/m2
07:04 3.4 °C 2.1 °C 1007.7 hPa SW 4.8 km/h 8 km/h 91% 0.0 mm 0 W/m2
07:09 3.4 °C 2.1 °C 1007.8 hPa SW 4.3 km/h 8 km/h 91% 0.0 mm 0 W/m2
07:14 3.4 °C 2.1 °C 1007.9 hPa SW 4.9 km/h 6.4 km/h 91% 0.0 mm 0 W/m2
07:19 3.5 °C 2.1 °C 1008.1 hPa SW 5.3 km/h 9.7 km/h 91% 0.0 mm 0 W/m2
07:24 3.5 °C 2.2 °C 1008.1 hPa SSW 4.8 km/h 9.7 km/h 91% 0.0 mm 0 W/m2
07:29 3.5 °C 2.2 °C 1008.2 hPa SW 3.6 km/h 6.4 km/h 91% 0.0 mm 0 W/m2
07:34 3.5 °C 2.2 °C 1008.2 hPa SW 4.3 km/h 8 km/h 91% 0.0 mm 0 W/m2
07:39 3.5 °C 2.2 °C 1008.3 hPa WSW 3.4 km/h 8 km/h 91% 0.0 mm 0 W/m2
07:44 3.6 °C 2.2 °C 1008.4 hPa West 3 km/h 5.6 km/h 91% 0.0 mm 0 W/m2
07:49 3.6 °C 2.2 °C 1008.5 hPa NW 2 km/h 5.6 km/h 91% 0.0 mm 0 W/m2
07:54 3.6 °C 2.3 °C 1008.6 hPa NW 1.7 km/h 4.8 km/h 91% 0.0 mm 0 W/m2
07:59 3.6 °C 2.3 °C 1008.6 hPa NW 0.9 km/h 3.7 km/h 91% 0.0 mm 0 W/m2
08:04 3.6 °C 2.3 °C 1008.6 hPa North 1 km/h 3.7 km/h 91% 0.0 mm 0 W/m2
08:09 3.7 °C 2.3 °C 1008.5 hPa North 2.1 km/h 3.7 km/h 91% 0.0 mm 5 W/m2
08:14 3.7 °C 2.3 °C 1008.6 hPa North 1.9 km/h 3.7 km/h 91% 0.0 mm 7 W/m2
08:19 3.7 °C 2.3 °C 1008.8 hPa NE 2.5 km/h 5.6 km/h 91% 0.0 mm 11 W/m2
08:24 3.7 °C 2.3 °C 1008.8 hPa ESE 2.1 km/h 5.6 km/h 91% 0.0 mm 16 W/m2
08:29 3.7 °C 2.3 °C 1008.8 hPa East 1.2 km/h 4.8 km/h 91% 0.0 mm 16 W/m2
08:34 3.7 °C 2.4 °C 1008.9 hPa East 2.3 km/h 5.6 km/h 91% 0.0 mm 21 W/m2
08:39 3.7 °C 2.4 °C 1009.0 hPa East 1.4 km/h 5.6 km/h 91% 0.0 mm 26 W/m2
08:44 3.8 °C 2.4 °C 1009.1 hPa ENE 1 km/h 5.6 km/h 91% 0.0 mm 23 W/m2
08:49 3.8 °C 2.4 °C 1009.2 hPa ENE 3.4 km/h 5.6 km/h 91% 0.0 mm 21 W/m2
08:54 3.8 °C 2.5 °C 1009.4 hPa ENE 1.3 km/h 4.8 km/h 91% 0.0 mm 19 W/m2
08:59 3.8 °C 2.5 °C 1009.5 hPa ENE 2.3 km/h 5.6 km/h 91% 0.0 mm 35 W/m2
09:04 3.8 °C 2.5 °C 1009.6 hPa ENE 2.1 km/h 5.6 km/h 91% 0.0 mm 35 W/m2
09:09 3.8 °C 2.5 °C 1009.6 hPa NE 3.9 km/h 6.4 km/h 91% 0.0 mm 30 W/m2
09:14 3.9 °C 2.5 °C 1009.5 hPa NNE 4.4 km/h 6.4 km/h 91% 0.0 mm 32 W/m2
09:19 3.9 °C 2.6 °C 1009.3 hPa North 6 km/h 8 km/h 91% 0.0 mm 35 W/m2
09:24 4 °C 2.6 °C 1009.2 hPa NNE 5.1 km/h 9.7 km/h 91% 0.0 mm 39 W/m2
09:29 4 °C 2.7 °C 1009.4 hPa NNE 5.9 km/h 9.7 km/h 91% 0.0 mm 32 W/m2
09:34 4 °C 2.7 °C 1009.4 hPa NE 5.3 km/h 9.7 km/h 91% 0.0 mm 35 W/m2
09:39 4.1 °C 2.8 °C 1009.6 hPa ENE 4.1 km/h 8 km/h 91% 0.0 mm 32 W/m2
09:44 4.1 °C 2.8 °C 1009.6 hPa ENE 4.6 km/h 8 km/h 91% 0.0 mm 25 W/m2
09:49 4.1 °C 2.8 °C 1009.7 hPa ENE 3.4 km/h 8 km/h 91% 0.0 mm 26 W/m2
09:54 4.1 °C 2.8 °C 1009.6 hPa ENE 4.5 km/h 11.3 km/h 91% 0.0 mm 37 W/m2
09:59 4.2 °C 2.8 °C 1009.6 hPa ENE 6.1 km/h 11.3 km/h 90.7% 0.0 mm 39 W/m2
10:04 4.2 °C 2.7 °C 1009.6 hPa ENE 6.7 km/h 12.9 km/h 90% 0.0 mm 51 W/m2
10:09 4.2 °C 2.7 °C 1009.7 hPa East 6.8 km/h 12.9 km/h 90% 0.0 mm 63 W/m2
10:14 4.3 °C 2.8 °C 1009.7 hPa East 7.9 km/h 13 km/h 90% 0.0 mm 69 W/m2
10:19 4.3 °C 2.8 °C 1009.5 hPa East 9.4 km/h 13 km/h 90.1% 0.0 mm 91 W/m2
10:24 4.4 °C 3 °C 1009.5 hPa East 9.7 km/h 14.8 km/h 90.7% 0.0 mm 109 W/m2
10:29 4.5 °C 3 °C 1009.6 hPa East 7.3 km/h 14.8 km/h 90% 0.0 mm 98 W/m2
10:34 4.6 °C 3.1 °C 1009.7 hPa ESE 8.9 km/h 14.8 km/h 90% 0.0 mm 79 W/m2
10:39 4.6 °C 3.1 °C 1009.6 hPa East 9 km/h 14.8 km/h 89.7% 0.0 mm 84 W/m2
10:44 4.7 °C 3.1 °C 1009.5 hPa East 9.7 km/h 14.5 km/h 89.2% 0.0 mm 109 W/m2
10:49 4.9 °C 3.3 °C 1009.3 hPa East 10 km/h 14.8 km/h 89.6% 0.0 mm 114 W/m2
10:54 4.9 °C 3.3 °C 1009.4 hPa ESE 12 km/h 16.7 km/h 89% 0.0 mm 81 W/m2
10:59 4.9 °C 3.3 °C 1009.4 hPa East 10 km/h 16.7 km/h 89% 0.0 mm 65 W/m2
11:04 4.9 °C 3.3 °C 1009.4 hPa ESE 9.5 km/h 16.7 km/h 89% 0.0 mm 65 W/m2
11:09 4.9 °C 3.3 °C 1009.4 hPa ESE 7.7 km/h 16.7 km/h 89% 0.0 mm 56 W/m2
11:14 4.9 °C 3.3 °C 1009.5 hPa East 5.7 km/h 12.9 km/h 89% 0.0 mm 58 W/m2
11:19 5 °C 3.3 °C 1009.5 hPa East 5.2 km/h 9.7 km/h 89% 0.0 mm 69 W/m2
11:24 5.1 °C 3.4 °C 1009.6 hPa ESE 2.8 km/h 9.7 km/h 89% 0.0 mm 69 W/m2
11:29 5.1 °C 3.4 °C 1009.6 hPa East 4.1 km/h 9.7 km/h 88.7% 0.0 mm 79 W/m2
11:34 5.2 °C 3.3 °C 1009.5 hPa East 6.1 km/h 9.7 km/h 88% 0.0 mm 79 W/m2
11:39 5.2 °C 3.4 °C 1009.5 hPa ESE 4.7 km/h 9.7 km/h 88% 0.0 mm 67 W/m2
11:44 5.2 °C 3.4 °C 1009.5 hPa ESE 2.8 km/h 9.7 km/h 88% 0.0 mm 69 W/m2
11:49 5.2 °C 3.4 °C 1009.4 hPa ESE 4.8 km/h 8 km/h 88% 0.0 mm 81 W/m2
11:54 5.2 °C 3.4 °C 1009.4 hPa ESE 6 km/h 9.7 km/h 88% 0.0 mm 88 W/m2
11:59 5.2 °C 3.4 °C 1009.3 hPa East 7 km/h 11.3 km/h 88% 0.0 mm 79 W/m2
12:04 5.3 °C 3.4 °C 1009.1 hPa East 8.7 km/h 13 km/h 88% 0.0 mm 72 W/m2
12:09 5.3 °C 3.5 °C 1009.1 hPa East 7.3 km/h 13 km/h 88% 0.0 mm 67 W/m2
12:14 5.3 °C 3.5 °C 1009.1 hPa East 6.3 km/h 11.3 km/h 88% 0.0 mm 49 W/m2
12:19 5.3 °C 3.5 °C 1009.1 hPa ENE 8.1 km/h 14.5 km/h 88% 0.0 mm 40 W/m2
12:24 5.3 °C 3.5 °C 1008.9 hPa East 9.5 km/h 14.8 km/h 88% 0.0 mm 40 W/m2
12:29 5.3 °C 3.5 °C 1008.7 hPa East 9.8 km/h 16.1 km/h 88% 0.0 mm 40 W/m2
12:34 5.3 °C 3.5 °C 1008.6 hPa East 11.5 km/h 16.7 km/h 88.1% 0.0 mm 49 W/m2
12:39 5.3 °C 3.7 °C 1008.5 hPa East 10.4 km/h 16.7 km/h 89% 0.0 mm 49 W/m2
12:44 5.3 °C 3.7 °C 1008.4 hPa East 8.4 km/h 14.5 km/h 89% 0.0 mm 39 W/m2
12:49 5.3 °C 3.6 °C 1008.4 hPa ENE 8.9 km/h 16.7 km/h 89% 0.0 mm 26 W/m2
12:54 5.3 °C 3.6 °C 1008.2 hPa ENE 7.7 km/h 16.1 km/h 89% 0.0 mm 30 W/m2
12:59 5.3 °C 3.7 °C 1008.2 hPa ENE 6.8 km/h 16.1 km/h 89.3% 0.0 mm 30 W/m2
13:04 5.3 °C 3.7 °C 1008.1 hPa ENE 12.7 km/h 20.9 km/h 89.4% 0.0 mm 28 W/m2
13:09 5.2 °C 3.7 °C 1008.1 hPa ENE 11.9 km/h 20.9 km/h 90% 0.0 mm 28 W/m2
13:14 5.2 °C 3.7 °C 1008.0 hPa ENE 11.2 km/h 19.3 km/h 90% 0.0 mm 30 W/m2
13:19 5.2 °C 3.7 °C 1008.0 hPa East 13.3 km/h 22.5 km/h 89.9% 0.0 mm 30 W/m2
13:24 5.2 °C 3.5 °C 1008.0 hPa East 12.5 km/h 22.5 km/h 89% 0.0 mm 26 W/m2
13:29 5.2 °C 3.5 °C 1007.8 hPa East 13.1 km/h 20.9 km/h 89% 0.0 mm 28 W/m2
13:34 5.2 °C 3.4 °C 1007.7 hPa East 13 km/h 25.7 km/h 88.3% 0.0 mm 28 W/m2
13:39 5.2 °C 3.3 °C 1007.6 hPa ENE 13.5 km/h 25.9 km/h 88% 0.0 mm 33 W/m2
13:44 5.2 °C 3.3 °C 1007.4 hPa ENE 13.2 km/h 25.7 km/h 87.5% 0.0 mm 39 W/m2
13:49 5.2 °C 3.2 °C 1007.5 hPa ENE 10.3 km/h 24.1 km/h 87.1% 0.0 mm 39 W/m2
13:54 5.2 °C 3.3 °C 1007.5 hPa ENE 9.7 km/h 16.1 km/h 87.8% 0.0 mm 25 W/m2
13:59 5.1 °C 3.3 °C 1007.5 hPa ENE 8.7 km/h 14.8 km/h 88% 0.0 mm 19 W/m2
14:04 5.1 °C 3.3 °C 1007.4 hPa East 12.6 km/h 20.9 km/h 88.5% 0.0 mm 19 W/m2
14:09 5 °C 3.4 °C 1007.4 hPa East 10.9 km/h 20.9 km/h 89% 0.0 mm 12 W/m2
14:14 4.9 °C 3.3 °C 1007.4 hPa East 10.5 km/h 19.3 km/h 89% 0.0 mm 11 W/m2
14:19 4.9 °C 3.4 °C 1007.5 hPa East 9.4 km/h 16.7 km/h 89.8% 0.2 mm 11 W/m2
14:24 4.9 °C 3.4 °C 1007.6 hPa ESE 8.4 km/h 16.1 km/h 90% 0.4 mm 9 W/m2
14:29 4.8 °C 3.3 °C 1007.6 hPa ESE 8.9 km/h 16.1 km/h 90% 0.4 mm 11 W/m2
14:34 4.7 °C 3.4 °C 1007.6 hPa ESE 8.6 km/h 16.7 km/h 90.7% 0.6 mm 9 W/m2
14:39 4.6 °C 3.3 °C 1007.6 hPa East 8.4 km/h 13 km/h 91% 0.8 mm 9 W/m2
14:44 4.6 °C 3.2 °C 1007.7 hPa East 8.7 km/h 13 km/h 91% 1.0 mm 7 W/m2
14:49 4.5 °C 3.2 °C 1007.8 hPa ESE 6.5 km/h 13 km/h 91% 1.2 mm 7 W/m2
14:54 4.5 °C 3.2 °C 1007.8 hPa East 6.3 km/h 13 km/h 91.2% 1.6 mm 9 W/m2
14:59 4.4 °C 3.2 °C 1007.6 hPa ENE 7.2 km/h 13 km/h 92% 1.8 mm 9 W/m2
15:04 4.3 °C 3.2 °C 1007.5 hPa East 5.8 km/h 12.9 km/h 92% 2.2 mm 7 W/m2
15:09 4.3 °C 3.2 °C 1007.5 hPa East 6.3 km/h 11.3 km/h 92% 2.4 mm 5 W/m2
15:14 4.3 °C 3.1 °C 1007.5 hPa East 7 km/h 11.3 km/h 92% 2.8 mm 5 W/m2
15:19 4.3 °C 3.2 °C 1007.3 hPa East 8.7 km/h 18.5 km/h 92.8% 3.2 mm 7 W/m2
15:24 4.2 °C 3.2 °C 1007.1 hPa East 10.4 km/h 19.3 km/h 93% 3.2 mm 7 W/m2
15:29 4.2 °C 3.1 °C 1007.0 hPa ENE 11.7 km/h 19.3 km/h 93% 3.2 mm 7 W/m2
15:34 4.2 °C 3.1 °C 1006.9 hPa ENE 11.9 km/h 19.3 km/h 93% 3.4 mm 0 W/m2
15:39 4.2 °C 3.1 °C 1006.8 hPa ENE 9.4 km/h 20.9 km/h 93.2% 3.4 mm 0 W/m2
15:44 4.2 °C 3.3 °C 1006.8 hPa ENE 12.1 km/h 22.5 km/h 94% 3.4 mm 5 W/m2
15:49 4.2 °C 3.3 °C 1006.7 hPa ENE 13.4 km/h 22.2 km/h 94% 3.4 mm 5 W/m2
15:54 4.2 °C 3.3 °C 1006.6 hPa East 12.2 km/h 22.5 km/h 94% 3.4 mm 0 W/m2
15:59 4.2 °C 3.3 °C 1006.6 hPa East 13 km/h 22.5 km/h 94% 3.4 mm 0 W/m2
16:04 4.2 °C 3.3 °C 1006.5 hPa ENE 16.1 km/h 24.1 km/h 94% 3.6 mm 0 W/m2
16:09 4.1 °C 3.3 °C 1006.4 hPa ENE 14.5 km/h 24.1 km/h 94% 3.6 mm 0 W/m2
16:14 4.1 °C 3.2 °C 1006.3 hPa ENE 13.8 km/h 24.1 km/h 94% 3.4 mm 0 W/m2
16:19 4.1 °C 3.2 °C 1006.1 hPa ENE 10.3 km/h 22.5 km/h 94% 3.4 mm 0 W/m2
16:24 4.1 °C 3.2 °C 1006.1 hPa ENE 13.3 km/h 22.5 km/h 94% 3.2 mm 0 W/m2
16:29 4.1 °C 3.3 °C 1006.2 hPa ENE 9.2 km/h 22.5 km/h 94.5% 3.0 mm 0 W/m2
16:34 4.1 °C 3.4 °C 1006.1 hPa ENE 7.2 km/h 14.5 km/h 95% 3.0 mm 0 W/m2
16:39 4.1 °C 3.4 °C 1006.1 hPa ENE 8.2 km/h 14.8 km/h 95% 2.8 mm 0 W/m2
16:44 4.1 °C 3.4 °C 1005.9 hPa ENE 9 km/h 14.8 km/h 95% 2.8 mm 0 W/m2
16:49 4.1 °C 3.4 °C 1005.8 hPa ENE 9.1 km/h 16.7 km/h 95% 2.8 mm 0 W/m2
16:54 4.1 °C 3.4 °C 1005.7 hPa ENE 8.3 km/h 16.7 km/h 95% 2.8 mm 0 W/m2
16:59 4.1 °C 3.4 °C 1005.5 hPa ENE 6.9 km/h 16.1 km/h 95% 2.8 mm 0 W/m2
17:04 4.2 °C 3.4 °C 1005.5 hPa ENE 6.5 km/h 13 km/h 95% 2.8 mm 0 W/m2
17:09 4.2 °C 3.4 °C 1005.5 hPa NE 4.4 km/h 12.9 km/h 95% 2.6 mm 0 W/m2
17:14 4.2 °C 3.5 °C 1005.3 hPa NE 1.9 km/h 6.4 km/h 95% 2.6 mm 0 W/m2
17:19 4.2 °C 3.5 °C 1005.3 hPa NNE 0.7 km/h 4.8 km/h 95% 2.6 mm 0 W/m2
17:24 4.2 °C 3.5 °C 1005.2 hPa NNE 0.9 km/h 3.7 km/h 95% 2.6 mm 0 W/m2
17:29 4.2 °C 3.5 °C 1005.0 hPa NNE 0.9 km/h 3.7 km/h 95% 2.4 mm 0 W/m2
17:34 4.2 °C 3.5 °C 1004.9 hPa NE 2.4 km/h 5.6 km/h 95% 2.6 mm 0 W/m2
17:39 4.2 °C 3.5 °C 1004.7 hPa NE 2.2 km/h 5.6 km/h 95% 2.6 mm 0 W/m2
17:44 4.2 °C 3.5 °C 1004.7 hPa NE 0.7 km/h 4.8 km/h 95% 2.8 mm 0 W/m2
17:49 4.2 °C 3.4 °C 1004.6 hPa NE 0.9 km/h 3.7 km/h 95% 2.6 mm 0 W/m2
17:54 4.2 °C 3.4 °C 1004.6 hPa NE 0.5 km/h 3.7 km/h 95% 2.6 mm 0 W/m2
17:59 4.2 °C 3.4 °C 1004.6 hPa NNW 1.6 km/h 3.7 km/h 95% 2.6 mm 0 W/m2
18:04 4.1 °C 3.4 °C 1004.5 hPa WNW 0.7 km/h 3.7 km/h 95% 2.6 mm 0 W/m2
18:09 4.1 °C 3.4 °C 1004.6 hPa WSW 4 km/h 6.4 km/h 95% 2.6 mm 0 W/m2
18:14 4.2 °C 3.4 °C 1004.8 hPa SW 5.9 km/h 11.3 km/h 95% 2.6 mm 0 W/m2
18:19 4.2 °C 3.5 °C 1004.8 hPa SW 4.8 km/h 11.1 km/h 95% 2.6 mm 0 W/m2
18:24 4.2 °C 3.5 °C 1004.6 hPa SSW 3 km/h 11.3 km/h 95% 2.6 mm 0 W/m2
18:29 4.2 °C 3.4 °C 1004.5 hPa SW 2.9 km/h 5.6 km/h 95% 2.6 mm 0 W/m2
18:34 4.2 °C 3.4 °C 1004.5 hPa WSW 3.1 km/h 5.6 km/h 95% 2.6 mm 0 W/m2
18:39 4.2 °C 3.5 °C 1004.6 hPa WSW 3.2 km/h 6.4 km/h 95% 2.2 mm 0 W/m2
18:44 4.2 °C 3.5 °C 1004.6 hPa SW 4.6 km/h 8 km/h 95% 2.2 mm 0 W/m2
18:49 4.2 °C 3.5 °C 1004.6 hPa WSW 3.3 km/h 5.6 km/h 95% 2.2 mm 0 W/m2
18:54 4.2 °C 3.5 °C 1004.4 hPa WSW 0.8 km/h 3.7 km/h 95% 2.2 mm 0 W/m2
18:59 4.2 °C 3.5 °C 1004.4 hPa West 1.9 km/h 3.7 km/h 95% 2.2 mm 0 W/m2
19:04 4.2 °C 3.5 °C 1004.3 hPa WNW 3.5 km/h 5.6 km/h 95% 2.4 mm 0 W/m2
19:09 4.2 °C 3.5 °C 1004.2 hPa WNW 2.2 km/h 4.8 km/h 95% 2.2 mm 0 W/m2
19:14 4.2 °C 3.5 °C 1004.0 hPa NNW 2.3 km/h 3.7 km/h 95% 2.0 mm 0 W/m2
19:19 4.2 °C 3.5 °C 1004.0 hPa WNW 3.4 km/h 5.6 km/h 95% 2.0 mm 0 W/m2
19:24 4.2 °C 3.5 °C 1003.9 hPa WNW 4.1 km/h 6.4 km/h 95% 2.0 mm 0 W/m2
19:29 4.2 °C 3.5 °C 1003.8 hPa WNW 5.2 km/h 8 km/h 95% 2.0 mm 0 W/m2
19:34 4.2 °C 3.5 °C 1003.9 hPa West 5.7 km/h 8 km/h 95% 1.8 mm 0 W/m2
19:39 4.2 °C 3.5 °C 1003.8 hPa West 4.6 km/h 6.4 km/h 95% 1.8 mm 0 W/m2
19:44 4.2 °C 3.5 °C 1003.8 hPa West 3.4 km/h 6.4 km/h 95% 1.8 mm 0 W/m2
19:49 4.2 °C 3.4 °C 1003.6 hPa WNW 3.7 km/h 6.4 km/h 95% 1.8 mm 0 W/m2
19:54 4.2 °C 3.4 °C 1003.6 hPa WNW 4.2 km/h 6.4 km/h 95% 1.8 mm 0 W/m2
19:59 4.2 °C 3.5 °C 1003.5 hPa NW 2.9 km/h 6.4 km/h 95.2% 1.8 mm 0 W/m2
20:04 4.2 °C 3.5 °C 1003.5 hPa WNW 3.8 km/h 8 km/h 95.2% 1.8 mm 0 W/m2
20:09 4.2 °C 3.6 °C 1003.5 hPa WNW 5.8 km/h 8 km/h 95.6% 1.8 mm 0 W/m2
20:14 4.2 °C 3.6 °C 1003.6 hPa West 5.5 km/h 8 km/h 95.8% 1.8 mm 0 W/m2
20:19 4.2 °C 3.6 °C 1003.8 hPa WSW 6.5 km/h 11.3 km/h 96% 1.8 mm 0 W/m2
20:24 4.2 °C 3.6 °C 1003.9 hPa WSW 8.8 km/h 13 km/h 96% 2.0 mm 0 W/m2
20:29 4.2 °C 3.6 °C 1003.9 hPa WSW 5.9 km/h 11.3 km/h 96% 2.0 mm 0 W/m2
20:34 4.2 °C 3.6 °C 1003.6 hPa West 3.5 km/h 6.4 km/h 96% 2.2 mm 0 W/m2
20:39 4.2 °C 3.6 °C 1003.3 hPa WNW 1.2 km/h 6.4 km/h 96% 2.6 mm 0 W/m2
20:44 4.1 °C 3.6 °C 1003.0 hPa NW 2.2 km/h 5.6 km/h 96% 2.6 mm 0 W/m2
20:49 4.1 °C 3.6 °C 1002.7 hPa NW 2.3 km/h 5.6 km/h 96% 2.6 mm 0 W/m2
20:54 4.1 °C 3.6 °C 1002.6 hPa WNW 2.6 km/h 5.6 km/h 96% 2.4 mm 0 W/m2
20:59 4.2 °C 3.6 °C 1002.6 hPa West 4.1 km/h 6.4 km/h 96% 2.2 mm 0 W/m2
21:04 4.1 °C 3.6 °C 1002.7 hPa West 5 km/h 9.7 km/h 96% 2.2 mm 0 W/m2
21:09 4.2 °C 3.6 °C 1002.7 hPa West 7.6 km/h 12.9 km/h 96% 2.0 mm 0 W/m2
21:14 4.2 °C 3.6 °C 1002.7 hPa West 7.9 km/h 13 km/h 96% 2.0 mm 0 W/m2
21:19 4.2 °C 3.6 °C 1002.9 hPa West 9.8 km/h 14.8 km/h 96% 2.0 mm 0 W/m2
21:24 4.2 °C 3.6 °C 1003.0 hPa West 9.6 km/h 14.8 km/h 96% 1.8 mm 0 W/m2
21:29 4.2 °C 3.7 °C 1003.1 hPa West 11.1 km/h 18.5 km/h 96% 1.8 mm 0 W/m2
21:34 4.2 °C 3.7 °C 1003.4 hPa WSW 8.2 km/h 19.3 km/h 96% 1.6 mm 0 W/m2
21:39 4.2 °C 3.7 °C 1003.4 hPa WSW 11 km/h 16.7 km/h 96% 1.6 mm 0 W/m2
21:44 4.2 °C 3.7 °C 1003.4 hPa West 13.1 km/h 19.3 km/h 96% 1.8 mm 0 W/m2
21:49 4.2 °C 3.7 °C 1003.5 hPa West 13.7 km/h 19.3 km/h 96% 2.2 mm 0 W/m2
21:54 4.2 °C 3.7 °C 1003.4 hPa West 11.1 km/h 19.3 km/h 96% 2.6 mm 0 W/m2
21:59 4.2 °C 3.7 °C 1003.5 hPa West 11.7 km/h 19.3 km/h 96% 2.8 mm 0 W/m2
22:04 4.2 °C 3.7 °C 1003.6 hPa West 12.9 km/h 20.9 km/h 96% 3.0 mm 0 W/m2
22:09 4.2 °C 3.7 °C 1003.5 hPa WNW 8.8 km/h 18.5 km/h 96% 3.2 mm 0 W/m2
22:14 4.2 °C 3.7 °C 1003.3 hPa WNW 8.8 km/h 13 km/h 96% 3.4 mm 0 W/m2
22:19 4.2 °C 3.7 °C 1003.2 hPa West 6.2 km/h 12.9 km/h 96% 3.6 mm 0 W/m2
22:24 4.2 °C 3.7 °C 1003.2 hPa West 7.8 km/h 11.3 km/h 96% 3.6 mm 0 W/m2
22:29 4.2 °C 3.7 °C 1003.4 hPa West 9 km/h 14.5 km/h 96% 3.6 mm 0 W/m2
22:34 4.3 °C 3.7 °C 1003.4 hPa West 10.6 km/h 16.7 km/h 96% 3.6 mm 0 W/m2
22:39 4.3 °C 3.7 °C 1003.3 hPa West 10.6 km/h 16.7 km/h 96% 3.4 mm 0 W/m2
22:44 4.2 °C 3.7 °C 1003.2 hPa WNW 11.8 km/h 22.5 km/h 96% 3.2 mm 0 W/m2
22:49 4.2 °C 3.7 °C 1003.1 hPa WNW 13.2 km/h 22.5 km/h 96% 2.6 mm 0 W/m2
22:54 4.2 °C 3.7 °C 1003.1 hPa WNW 14.7 km/h 22.5 km/h 96% 2.0 mm 0 W/m2
22:59 4.2 °C 3.6 °C 1003.1 hPa WNW 13.7 km/h 20.9 km/h 96% 1.6 mm 0 W/m2
23:04 4.1 °C 3.6 °C 1003.1 hPa WNW 14.6 km/h 20.9 km/h 96% 1.2 mm 0 W/m2
23:09 4.1 °C 3.6 °C 1003.1 hPa WNW 13.8 km/h 20.9 km/h 96% 1.0 mm 0 W/m2
23:14 4.1 °C 3.6 °C 1003.1 hPa WNW 14.1 km/h 20.9 km/h 96% 1.0 mm 0 W/m2
23:19 4.1 °C 3.6 °C 1003.1 hPa West 11.1 km/h 20.9 km/h 96% 0.6 mm 0 W/m2
23:24 4.1 °C 3.6 °C 1003.2 hPa West 10.9 km/h 19.3 km/h 96% 0.2 mm 0 W/m2
23:29 4.1 °C 3.6 °C 1003.2 hPa West 11.9 km/h 19.3 km/h 96% 0.2 mm 0 W/m2
23:34 4.1 °C 3.6 °C 1003.2 hPa West 11.5 km/h 19.3 km/h 96% 0.0 mm 0 W/m2
23:39 4.1 °C 3.6 °C 1003.0 hPa WNW 12.4 km/h 20.9 km/h 96% 0.0 mm 0 W/m2
23:44 4.1 °C 3.6 °C 1002.9 hPa West 11.4 km/h 22.5 km/h 96% 0.0 mm 0 W/m2
23:49 4.1 °C 3.6 °C 1003.1 hPa West 11.7 km/h 22.5 km/h 96% 0.0 mm 0 W/m2
23:54 4.1 °C 3.6 °C 1003.1 hPa WNW 12.1 km/h 20.9 km/h 96% 0.0 mm 0 W/m2
23:59 4.1 °C 3.6 °C 1003.1 hPa WNW 12.7 km/h 20.9 km/h 96% 0.0 mm 0 W/m2
Stazione Meteorologica MeteoMincio Rivalta s/M (MN)
Con i complimenti di Weather Underground - 4 mb


METEO PILLOLE
La più disastrosa inondazione causata da cicloni
Bangladesh
Nel novembre 1970 un ciclone nel Golfo del Bangladesh uccise circa 300.000 persone.

Do NOT follow this link or you will be banned from the site!